createdAt,value
2023-06-04T00:02:15.079Z,102287.69
2023-06-04T00:04:41.649Z,102287.97
2023-06-04T00:07:08.120Z,102290.69
2023-06-04T00:09:34.661Z,102292.84
2023-06-04T00:12:01.264Z,102290.06
2023-06-04T00:14:27.823Z,102290.81
2023-06-04T00:16:54.359Z,102289.69
2023-06-04T00:19:20.795Z,102283.94
2023-06-04T00:21:47.357Z,102288.00
2023-06-04T00:24:14.207Z,102286.63
2023-06-04T00:26:40.982Z,102284.41
2023-06-04T00:29:07.466Z,102285.44
2023-06-04T00:31:33.968Z,102285.94
2023-06-04T00:34:00.438Z,102281.00
2023-06-04T00:36:26.872Z,102284.25
2023-06-04T00:38:53.357Z,102281.44
2023-06-04T00:41:19.791Z,102287.41
2023-06-04T00:43:46.971Z,102280.88
2023-06-04T00:46:19.281Z,102280.06
2023-06-04T00:48:45.980Z,102286.34
2023-06-04T00:51:13.365Z,102280.31
2023-06-04T00:53:40.503Z,102286.84
2023-06-04T00:56:07.490Z,102291.16
2023-06-04T00:58:40.961Z,102288.38
2023-06-04T01:01:16.119Z,102290.53
2023-06-04T01:03:47.313Z,102296.25
2023-06-04T01:06:22.393Z,102288.25
2023-06-04T01:08:55.692Z,102289.59
2023-06-04T01:11:40.120Z,102289.59
2023-06-04T01:14:11.091Z,102291.75
2023-06-04T01:17:02.478Z,102285.16
2023-06-04T01:19:38.779Z,102291.09
2023-06-04T01:22:17.498Z,102290.25
2023-06-04T01:24:56.651Z,102284.50
2023-06-04T01:27:24.075Z,102294.47
2023-06-04T01:29:52.440Z,102296.09
2023-06-04T01:32:19.080Z,102292.78
2023-06-04T01:34:46.828Z,102291.13
2023-06-04T01:37:13.635Z,102293.78
2023-06-04T01:39:40.115Z,102292.94
2023-06-04T01:42:06.948Z,102291.00
2023-06-04T01:44:33.342Z,102291.50
2023-06-04T01:46:59.805Z,102290.66
2023-06-04T01:49:26.251Z,102283.75
2023-06-04T01:51:52.707Z,102284.50
2023-06-04T01:54:19.126Z,102292.59
2023-06-04T01:56:46.111Z,102296.06
2023-06-04T01:59:13.044Z,102292.28
2023-06-04T02:01:39.655Z,102291.44
2023-06-04T02:04:06.171Z,102294.41
2023-06-04T02:06:32.638Z,102295.50
2023-06-04T02:08:59.072Z,102298.13
2023-06-04T02:11:26.113Z,102294.00
2023-06-04T02:13:52.579Z,102289.03
2023-06-04T02:16:19.038Z,102291.72
2023-06-04T02:18:45.598Z,102291.38
2023-06-04T02:21:13.386Z,102294.34
2023-06-04T02:23:39.897Z,102289.06
2023-06-04T02:26:07.388Z,102290.88
2023-06-04T02:28:33.789Z,102293.53
2023-06-04T02:31:00.467Z,102289.38
2023-06-04T02:33:27.119Z,102295.31
2023-06-04T02:35:53.866Z,102295.56
2023-06-04T02:38:20.461Z,102288.72
2023-06-04T02:40:46.917Z,102290.34
2023-06-04T02:43:13.347Z,102286.47
2023-06-04T02:45:39.808Z,102293.25
2023-06-04T02:48:06.362Z,102293.47
2023-06-04T02:50:32.845Z,102296.69
2023-06-04T02:52:59.306Z,102291.19
2023-06-04T02:55:26.147Z,102282.78
2023-06-04T02:57:53.082Z,102284.59
2023-06-04T03:00:19.843Z,102296.44
2023-06-04T03:02:47.862Z,102290.16
2023-06-04T03:05:16.213Z,102287.69
2023-06-04T03:07:44.329Z,102296.94
2023-06-04T03:10:12.325Z,102291.50
2023-06-04T03:12:38.751Z,102290.06
2023-06-04T03:15:05.916Z,102283.81
2023-06-04T03:17:33.733Z,102296.34
2023-06-04T03:20:00.351Z,102289.13
2023-06-04T03:22:27.148Z,102288.28
2023-06-04T03:24:53.613Z,102295.38
2023-06-04T03:27:20.876Z,102291.25
2023-06-04T03:29:47.408Z,102293.41
2023-06-04T03:32:14.020Z,102302.63
2023-06-04T03:34:40.501Z,102296.34
2023-06-04T03:37:07.034Z,102295.53
2023-06-04T03:39:33.433Z,102296.03
2023-06-04T03:41:59.918Z,102305.72
2023-06-04T03:44:26.519Z,102295.91
2023-06-04T03:46:53.006Z,102295.81
2023-06-04T03:49:20.564Z,102303.97
2023-06-04T03:51:47.188Z,102298.06
2023-06-04T03:54:17.639Z,102297.00
2023-06-04T03:56:46.157Z,102295.34
2023-06-04T03:59:12.601Z,102297.56
2023-06-04T04:01:39.674Z,102299.44
2023-06-04T04:04:06.626Z,102299.72
2023-06-04T04:06:33.246Z,102301.34
2023-06-04T04:08:59.793Z,102295.34
2023-06-04T04:11:26.879Z,102294.84
2023-06-04T04:13:53.435Z,102294.38
2023-06-04T04:16:19.911Z,102306.31
2023-06-04T04:18:46.785Z,102296.25
2023-06-04T04:21:13.332Z,102303.13
2023-06-04T04:23:43.287Z,102304.75
2023-06-04T04:26:11.185Z,102303.44
2023-06-04T04:28:38.224Z,102304.28
2023-06-04T04:31:05.896Z,102296.69
2023-06-04T04:33:37.978Z,102299.16
2023-06-04T04:36:04.574Z,102305.00
2023-06-04T04:38:32.412Z,102306.16
2023-06-04T04:40:58.973Z,102302.94
2023-06-04T04:43:36.330Z,102301.03
2023-06-04T04:46:02.838Z,102294.31
2023-06-04T04:48:29.373Z,102301.72
2023-06-04T04:50:55.862Z,102300.41
2023-06-04T04:53:22.868Z,102305.34
2023-06-04T04:55:49.320Z,102304.03
2023-06-04T04:58:16.183Z,102308.16
2023-06-04T05:00:42.853Z,102303.78
2023-06-04T05:03:09.580Z,102300.00
2023-06-04T05:05:36.096Z,102303.88
2023-06-04T05:08:02.548Z,102304.72
2023-06-04T05:10:28.951Z,102307.75
2023-06-04T05:12:58.055Z,102312.47
2023-06-04T05:15:25.619Z,102311.63
2023-06-04T05:17:53.742Z,102319.88
2023-06-04T05:20:22.133Z,102310.16
2023-06-04T05:22:48.619Z,102309.66
2023-06-04T05:25:17.671Z,102307.03
2023-06-04T05:27:44.173Z,102300.59
2023-06-04T05:30:11.207Z,102305.56
2023-06-04T05:32:41.699Z,102306.72
2023-06-04T05:35:09.184Z,102307.59
2023-06-04T05:37:36.446Z,102306.63
2023-06-04T05:40:03.902Z,102302.91
2023-06-04T05:42:30.337Z,102304.88
2023-06-04T05:44:56.861Z,102304.97
2023-06-04T05:47:23.538Z,102303.13
2023-06-04T05:49:50.060Z,102303.19
2023-06-04T05:52:16.571Z,102300.81
2023-06-04T05:54:42.956Z,102304.69
2023-06-04T05:57:09.363Z,102312.94
2023-06-04T05:59:35.957Z,102305.66
2023-06-04T06:02:03.619Z,102304.38
2023-06-04T06:04:30.117Z,102315.13
2023-06-04T06:06:57.157Z,102308.34
2023-06-04T06:09:23.658Z,102310.06
2023-06-04T06:11:50.107Z,102311.19
2023-06-04T06:14:16.790Z,102311.03
2023-06-04T06:16:43.241Z,102305.88
2023-06-04T06:19:09.764Z,102317.91
2023-06-04T06:21:37.203Z,102315.25
2023-06-04T06:24:03.906Z,102314.75
2023-06-04T06:26:31.095Z,102310.44
2023-06-04T06:28:57.642Z,102313.78
2023-06-04T06:31:24.319Z,102317.66
2023-06-04T06:33:51.318Z,102320.44
2023-06-04T06:36:19.930Z,102311.16
2023-06-04T06:38:47.235Z,102309.56
2023-06-04T06:41:14.188Z,102312.94
2023-06-04T06:43:40.846Z,102307.47
2023-06-04T06:46:07.846Z,102308.03
2023-06-04T06:48:34.394Z,102310.75
2023-06-04T06:51:00.972Z,102316.28
2023-06-04T06:53:27.453Z,102315.25
2023-06-04T06:55:53.909Z,102321.84
2023-06-04T06:58:20.461Z,102320.78
2023-06-04T07:00:46.888Z,102326.03
2023-06-04T07:03:13.709Z,102326.88
2023-06-04T07:05:40.301Z,102334.31
2023-06-04T07:08:06.742Z,102334.09
2023-06-04T07:10:33.186Z,102328.69
2023-06-04T07:13:00.033Z,102326.81
2023-06-04T07:15:26.492Z,102327.69
2023-06-04T07:17:53.048Z,102331.31
2023-06-04T07:20:19.670Z,102326.13
2023-06-04T07:22:46.422Z,102333.84
2023-06-04T07:25:12.824Z,102343.72
2023-06-04T07:27:39.395Z,102340.50
2023-06-04T07:30:07.683Z,102344.91
2023-06-04T07:32:34.247Z,102342.78
2023-06-04T07:35:00.706Z,102335.97
2023-06-04T07:37:27.316Z,102333.03
2023-06-04T07:39:53.753Z,102335.22
2023-06-04T07:42:20.254Z,102333.59
2023-06-04T07:44:46.648Z,102338.00
2023-06-04T07:47:13.076Z,102335.31
2023-06-04T07:49:44.637Z,102346.81
2023-06-04T07:52:17.480Z,102339.19
2023-06-04T07:54:43.897Z,102337.56
2023-06-04T07:57:11.292Z,102339.50
2023-06-04T07:59:37.775Z,102343.09
2023-06-04T08:02:04.364Z,102336.56
2023-06-04T08:04:30.950Z,102339.31
2023-06-04T08:06:57.467Z,102337.94
2023-06-04T08:09:24.126Z,102343.44
2023-06-04T08:11:50.689Z,102339.91
2023-06-04T08:14:17.109Z,102331.16
2023-06-04T08:16:43.751Z,102332.25
2023-06-04T08:19:10.691Z,102331.16
2023-06-04T08:21:37.135Z,102329.25
2023-06-04T08:24:04.395Z,102339.91
2023-06-04T08:26:31.810Z,102342.41
2023-06-04T08:28:58.471Z,102334.72
2023-06-04T08:31:24.983Z,102337.72
2023-06-04T08:33:51.489Z,102344.84
2023-06-04T08:36:17.987Z,102336.63
2023-06-04T08:38:47.205Z,102337.19
2023-06-04T08:41:21.325Z,102339.66
2023-06-04T08:43:50.223Z,102326.22
2023-06-04T08:46:18.728Z,102333.63
2023-06-04T08:48:45.832Z,102331.72
2023-06-04T08:51:12.503Z,102335.78
2023-06-04T08:53:39.363Z,102329.19
2023-06-04T08:56:06.144Z,102332.47
2023-06-04T08:58:36.649Z,102345.38
2023-06-04T09:01:04.014Z,102344.53
2023-06-04T09:03:33.590Z,102344.25
2023-06-04T09:06:01.131Z,102348.63
2023-06-04T09:08:32.497Z,102341.75
2023-06-04T09:10:59.014Z,102334.88
2023-06-04T09:13:29.444Z,102334.84
2023-06-04T09:16:07.005Z,102335.66
2023-06-04T09:18:34.008Z,102333.69
2023-06-04T09:21:08.856Z,102333.09
2023-06-04T09:23:45.698Z,102332.00
2023-06-04T09:26:13.444Z,102332.28
2023-06-04T09:28:47.121Z,102333.06
2023-06-04T09:31:17.955Z,102335.25
2023-06-04T09:33:50.006Z,102332.19
2023-06-04T09:36:17.049Z,102330.22
2023-06-04T09:38:44.022Z,102340.38
2023-06-04T09:41:18.307Z,102328.03
2023-06-04T09:43:45.040Z,102325.53
2023-06-04T09:46:16.617Z,102331.53
2023-06-04T09:48:44.583Z,102327.13
2023-06-04T09:51:13.025Z,102333.47
2023-06-04T09:53:40.191Z,102326.84
2023-06-04T09:56:07.649Z,102333.97
2023-06-04T09:58:35.204Z,102335.00
2023-06-04T10:01:04.725Z,102330.56
2023-06-04T10:03:34.086Z,102334.38
2023-06-04T10:06:03.290Z,102337.66
2023-06-04T10:08:31.372Z,102330.50
2023-06-04T10:11:02.719Z,102332.38
2023-06-04T10:13:32.403Z,102324.06
2023-06-04T10:15:59.858Z,102324.63
2023-06-04T10:18:29.700Z,102335.25
2023-06-04T10:20:57.153Z,102322.03
2023-06-04T10:23:24.848Z,102323.94
2023-06-04T10:25:53.584Z,102325.88
2023-06-04T10:28:21.620Z,102321.69
2023-06-04T10:30:51.499Z,102319.16
2023-06-04T10:33:21.029Z,102323.50
2023-06-04T10:35:47.873Z,102317.41
2023-06-04T10:38:17.382Z,102320.16
2023-06-04T10:40:44.508Z,102331.16
2023-06-04T10:43:17.102Z,102318.47
2023-06-04T10:45:43.761Z,102318.41
2023-06-04T10:48:13.384Z,102315.06
2023-06-04T10:50:53.334Z,102313.31
2023-06-04T10:53:21.036Z,102319.03
2023-06-04T10:55:49.264Z,102314.66
2023-06-04T10:58:16.921Z,102319.28
2023-06-04T11:00:50.130Z,102323.09
2023-06-04T11:03:16.994Z,102320.03
2023-06-04T11:05:45.613Z,102331.81
2023-06-04T11:08:14.330Z,102323.78
2023-06-04T11:10:46.944Z,102316.88
2023-06-04T11:13:13.587Z,102321.50
2023-06-04T11:15:42.755Z,102315.72
2023-06-04T11:18:14.583Z,102317.34
2023-06-04T11:20:41.125Z,102306.88
2023-06-04T11:23:07.570Z,102304.34
2023-06-04T11:25:34.249Z,102294.31
2023-06-04T11:28:02.697Z,102299.75
2023-06-04T11:30:29.580Z,102297.50
2023-06-04T11:33:03.963Z,102292.81
2023-06-04T11:35:30.646Z,102293.31
2023-06-04T11:37:58.296Z,102294.16
2023-06-04T11:40:25.308Z,102295.28
2023-06-04T11:42:51.838Z,102291.16
2023-06-04T11:45:21.639Z,102301.59
2023-06-04T11:47:49.441Z,102289.19
2023-06-04T11:50:16.423Z,102283.28
2023-06-04T11:52:43.712Z,102287.41
2023-06-04T11:55:11.892Z,102283.56
2023-06-04T11:57:39.818Z,102279.09
2023-06-04T12:00:10.394Z,102277.97
2023-06-04T12:02:50.927Z,102273.78
2023-06-04T12:05:21.108Z,102273.19
2023-06-04T12:07:51.707Z,102276.69
2023-06-04T12:10:19.860Z,102280.19
2023-06-04T12:12:46.942Z,102281.81
2023-06-04T12:15:20.332Z,102277.88
2023-06-04T12:17:51.649Z,102283.66
2023-06-04T12:20:18.614Z,102278.97
2023-06-04T12:22:46.924Z,102272.88
2023-06-04T12:25:13.787Z,102270.63
2023-06-04T12:27:48.980Z,102269.00
2023-06-04T12:30:16.935Z,102277.78
2023-06-04T12:32:43.505Z,102276.06
2023-06-04T12:35:10.052Z,102276.06
2023-06-04T12:37:36.528Z,102272.09
2023-06-04T12:40:05.223Z,102268.22
2023-06-04T12:42:32.500Z,102266.00
2023-06-04T12:44:58.995Z,102274.16
2023-06-04T12:47:25.568Z,102269.69
2023-06-04T12:49:53.177Z,102271.63
2023-06-04T12:52:19.669Z,102267.22
2023-06-04T12:54:46.217Z,102265.81
2023-06-04T12:57:12.880Z,102264.97
2023-06-04T12:59:39.301Z,102261.94
2023-06-04T13:02:06.754Z,102256.44
2023-06-04T13:04:33.274Z,102267.28
2023-06-04T13:07:02.650Z,102260.03
2023-06-04T13:09:29.955Z,102260.03
2023-06-04T13:11:56.592Z,102266.66
2023-06-04T13:14:23.047Z,102256.44
2023-06-04T13:16:50.159Z,102260.53
2023-06-04T13:19:16.702Z,102260.41
2023-06-04T13:21:43.163Z,102252.97
2023-06-04T13:24:11.900Z,102258.19
2023-06-04T13:26:39.999Z,102260.56
2023-06-04T13:29:06.580Z,102256.88
2023-06-04T13:31:33.106Z,102267.31
2023-06-04T13:34:00.348Z,102262.91
2023-06-04T13:36:28.949Z,102258.75
2023-06-04T13:38:56.051Z,102264.47
2023-06-04T13:41:22.498Z,102252.81
2023-06-04T13:43:49.002Z,102255.28
2023-06-04T13:46:15.498Z,102252.00
2023-06-04T13:48:41.909Z,102259.78
2023-06-04T13:51:08.605Z,102255.66
2023-06-04T13:53:35.418Z,102254.03
2023-06-04T13:56:02.021Z,102255.16
2023-06-04T13:58:28.447Z,102239.75
2023-06-04T14:00:55.307Z,102256.50
2023-06-04T14:03:21.958Z,102246.59
2023-06-04T14:05:48.554Z,102246.28
2023-06-04T14:08:15.206Z,102250.16
2023-06-04T14:10:44.584Z,102244.03
2023-06-04T14:13:11.155Z,102241.88
2023-06-04T14:15:37.884Z,102232.59
2023-06-04T14:18:05.351Z,102240.06
2023-06-04T14:20:31.939Z,102238.41
2023-06-04T14:22:58.643Z,102243.09
2023-06-04T14:25:25.283Z,102235.34
2023-06-04T14:27:52.030Z,102229.41
2023-06-04T14:30:18.480Z,102228.34
2023-06-04T14:32:44.951Z,102231.72
2023-06-04T14:35:11.420Z,102222.84
2023-06-04T14:37:37.819Z,102218.44
2023-06-04T14:40:04.612Z,102227.34
2023-06-04T14:42:31.019Z,102228.47
2023-06-04T14:44:57.467Z,102231.84
2023-06-04T14:47:24.054Z,102223.88
2023-06-04T14:49:50.529Z,102228.16
2023-06-04T14:52:17.344Z,102239.69
2023-06-04T14:54:43.756Z,102219.91
2023-06-04T14:57:10.240Z,102234.81
2023-06-04T14:59:37.935Z,102235.22
2023-06-04T15:02:04.655Z,102226.03
2023-06-04T15:04:31.114Z,102226.22
2023-06-04T15:06:57.574Z,102220.50
2023-06-04T15:09:24.043Z,102219.28
2023-06-04T15:11:50.481Z,102216.63
2023-06-04T15:14:16.940Z,102219.91
2023-06-04T15:16:43.369Z,102215.50
2023-06-04T15:19:10.826Z,102216.81
2023-06-04T15:21:37.420Z,102223.16
2023-06-04T15:24:04.084Z,102210.00
2023-06-04T15:26:30.947Z,102207.84
2023-06-04T15:28:57.586Z,102205.59
2023-06-04T15:31:24.403Z,102206.41
2023-06-04T15:33:51.087Z,102200.69
2023-06-04T15:36:17.634Z,102204.06
2023-06-04T15:38:44.060Z,102204.34
2023-06-04T15:41:10.713Z,102207.44
2023-06-04T15:43:37.206Z,102210.28
2023-06-04T15:46:03.687Z,102209.44
2023-06-04T15:48:31.575Z,102203.13
2023-06-04T15:50:58.039Z,102217.50
2023-06-04T15:53:24.600Z,102211.78
2023-06-04T15:55:51.372Z,102219.53
2023-06-04T15:58:17.988Z,102208.22
2023-06-04T16:00:44.415Z,102207.69
2023-06-04T16:03:11.104Z,102202.47
2023-06-04T16:05:37.525Z,102202.88
2023-06-04T16:08:04.687Z,102207.88
2023-06-04T16:10:31.168Z,102205.13
2023-06-04T16:12:57.614Z,102201.03
2023-06-04T16:15:24.129Z,102202.78
2023-06-04T16:17:50.669Z,102197.56
2023-06-04T16:20:17.452Z,102198.16
2023-06-04T16:22:43.927Z,102198.75
2023-06-04T16:25:10.731Z,102193.84
2023-06-04T16:27:37.284Z,102197.72
2023-06-04T16:30:05.830Z,102198.31
2023-06-04T16:32:32.589Z,102191.50
2023-06-04T16:35:00.562Z,102184.63
2023-06-04T16:37:27.518Z,102192.28
2023-06-04T16:39:54.030Z,102192.91
2023-06-04T16:42:20.443Z,102179.72
2023-06-04T16:44:47.218Z,102184.16
2023-06-04T16:47:14.180Z,102177.63
2023-06-04T16:49:40.657Z,102182.03
2023-06-04T16:52:08.365Z,102184.78
2023-06-04T16:54:35.019Z,102184.78
2023-06-04T16:57:01.626Z,102193.53
2023-06-04T16:59:31.038Z,102183.13
2023-06-04T17:01:58.316Z,102179.88
2023-06-04T17:04:24.872Z,102182.09
2023-06-04T17:07:01.760Z,102182.69
2023-06-04T17:09:43.616Z,102191.28
2023-06-04T17:12:10.147Z,102188.59
2023-06-04T17:14:36.596Z,102186.13
2023-06-04T17:17:03.476Z,102193.88
2023-06-04T17:19:32.653Z,102174.72
2023-06-04T17:22:00.339Z,102184.66
2023-06-04T17:24:36.178Z,102194.03
2023-06-04T17:27:02.648Z,102187.50
2023-06-04T17:29:29.082Z,102191.38
2023-06-04T17:31:55.840Z,102177.38
2023-06-04T17:34:22.274Z,102183.47
2023-06-04T17:36:48.786Z,102186.00
2023-06-04T17:39:15.225Z,102190.47
2023-06-04T17:41:41.665Z,102189.09
2023-06-04T17:44:08.083Z,102187.78
2023-06-04T17:46:34.592Z,102194.09
2023-06-04T17:49:29.083Z,102198.25
2023-06-04T17:51:55.639Z,102195.78
2023-06-04T17:54:22.192Z,102205.47
2023-06-04T17:56:48.618Z,102204.41
2023-06-04T17:59:15.219Z,102197.88
2023-06-04T18:01:41.733Z,102197.41
2023-06-04T18:04:08.162Z,102204.03
2023-06-04T18:06:34.594Z,102199.94
2023-06-04T18:09:01.179Z,102212.88
2023-06-04T18:11:27.934Z,102205.72
2023-06-04T18:13:54.533Z,102198.59
2023-06-04T18:16:21.089Z,102201.94
2023-06-04T18:18:47.570Z,102197.53
2023-06-04T18:21:14.143Z,102206.94
2023-06-04T18:23:41.731Z,102210.03
2023-06-04T18:26:08.402Z,102212.53
2023-06-04T18:28:34.991Z,102212.00
2023-06-04T18:31:01.456Z,102214.81
2023-06-04T18:33:28.224Z,102210.44
2023-06-04T18:35:54.664Z,102216.50
2023-06-04T18:38:21.075Z,102219.03
2023-06-04T18:40:47.554Z,102213.28
2023-06-04T18:43:14.094Z,102222.13
2023-06-04T18:45:40.595Z,102217.28
2023-06-04T18:48:07.877Z,102232.69
2023-06-04T18:50:37.274Z,102231.38
2023-06-04T18:53:06.119Z,102226.22
2023-06-04T18:55:32.606Z,102231.25
2023-06-04T18:57:59.064Z,102236.47
2023-06-04T19:00:25.767Z,102243.41
2023-06-04T19:02:53.927Z,102235.75
2023-06-04T19:05:20.485Z,102242.34
2023-06-04T19:07:47.020Z,102238.53
2023-06-04T19:10:15.163Z,102242.38
2023-06-04T19:12:43.416Z,102241.31
2023-06-04T19:15:10.175Z,102236.13
2023-06-04T19:17:36.762Z,102250.13
2023-06-04T19:20:03.594Z,102249.06
2023-06-04T19:22:30.110Z,102251.84
2023-06-04T19:24:56.782Z,102246.91
2023-06-04T19:27:23.204Z,102256.28
2023-06-04T19:29:49.646Z,102254.13
2023-06-04T19:32:16.038Z,102264.56
2023-06-04T19:34:42.925Z,102267.91
2023-06-04T19:37:09.474Z,102272.91
2023-06-04T19:39:35.927Z,102270.19
2023-06-04T19:42:02.394Z,102278.44
2023-06-04T19:44:28.826Z,102277.88
2023-06-04T19:46:55.344Z,102278.16
2023-06-04T19:49:21.905Z,102290.78
2023-06-04T19:51:48.767Z,102286.16
2023-06-04T19:54:15.235Z,102282.34
2023-06-04T19:56:42.673Z,102291.69
2023-06-04T19:59:09.205Z,102296.63
2023-06-04T20:01:36.187Z,102296.59
2023-06-04T20:04:02.656Z,102303.19
2023-06-04T20:06:29.435Z,102308.13
2023-06-04T20:08:55.948Z,102308.13
2023-06-04T20:11:23.205Z,102309.50
2023-06-04T20:13:50.256Z,102313.06
2023-06-04T20:16:16.829Z,102319.09
2023-06-04T20:18:43.294Z,102324.59
2023-06-04T20:21:09.734Z,102317.22
2023-06-04T20:23:36.642Z,102330.06
2023-06-04T20:26:03.109Z,102333.63
2023-06-04T20:28:31.449Z,102326.78
2023-06-04T20:30:57.993Z,102329.50
2023-06-04T20:33:26.574Z,102340.19
2023-06-04T20:35:53.045Z,102335.00
2023-06-04T20:38:19.444Z,102339.38
2023-06-04T20:40:45.884Z,102344.28
2023-06-04T20:43:15.231Z,102347.56
2023-06-04T20:45:41.672Z,102353.03
2023-06-04T20:48:08.155Z,102352.19
2023-06-04T20:50:34.646Z,102351.38
2023-06-04T20:53:01.098Z,102352.47
2023-06-04T20:55:27.555Z,102359.03
2023-06-04T20:57:53.971Z,102361.22
2023-06-04T21:00:20.649Z,102362.84
2023-06-04T21:02:47.217Z,102357.34
2023-06-04T21:05:13.746Z,102356.53
2023-06-04T21:07:40.428Z,102351.81
2023-06-04T21:10:07.168Z,102354.28
2023-06-04T21:12:33.606Z,102355.63
2023-06-04T21:15:00.035Z,102357.81
2023-06-04T21:17:26.505Z,102369.28
2023-06-04T21:19:53.145Z,102377.75
2023-06-04T21:22:19.576Z,102371.19
2023-06-04T21:24:47.086Z,102365.41
2023-06-04T21:27:13.754Z,102371.69
2023-06-04T21:29:40.194Z,102366.19
2023-06-04T21:32:06.677Z,102377.13
2023-06-04T21:34:33.190Z,102382.31
2023-06-04T21:36:59.610Z,102374.09
2023-06-04T21:39:26.127Z,102375.19
2023-06-04T21:41:52.678Z,102374.59
2023-06-04T21:44:19.100Z,102372.38
2023-06-04T21:46:46.102Z,102374.56
2023-06-04T21:49:12.910Z,102381.34
2023-06-04T21:51:41.255Z,102378.59
2023-06-04T21:54:09.879Z,102372.84
2023-06-04T21:56:37.594Z,102370.63
2023-06-04T21:59:04.042Z,102372.53
2023-06-04T22:01:30.639Z,102371.13
2023-06-04T22:03:57.165Z,102382.06
2023-06-04T22:06:24.318Z,102371.09
2023-06-04T22:08:50.890Z,102383.66
2023-06-04T22:11:18.429Z,102374.34
2023-06-04T22:13:44.888Z,102389.03
2023-06-04T22:16:11.381Z,102383.03
2023-06-04T22:18:52.295Z,102381.91
2023-06-04T22:21:20.583Z,102378.31
2023-06-04T22:23:47.074Z,102383.97
2023-06-04T22:26:21.212Z,102382.53
2023-06-04T22:28:55.257Z,102381.13
2023-06-04T22:31:21.740Z,102380.25
2023-06-04T22:33:48.236Z,102377.78
2023-06-04T22:36:14.679Z,102379.44
2023-06-04T22:38:41.067Z,102383.69
2023-06-04T22:41:07.813Z,102379.03
2023-06-04T22:43:34.487Z,102387.47
2023-06-04T22:46:01.141Z,102395.59
2023-06-04T22:48:27.618Z,102381.13
2023-06-04T22:50:58.293Z,102387.34
2023-06-04T22:53:24.802Z,102404.28
2023-06-04T22:55:51.317Z,102388.44
2023-06-04T22:58:17.870Z,102391.72
2023-06-04T23:00:49.969Z,102390.56
2023-06-04T23:03:17.499Z,102399.28
2023-06-04T23:05:44.036Z,102398.19
2023-06-04T23:08:10.476Z,102401.44
2023-06-04T23:10:36.918Z,102394.56
2023-06-04T23:13:03.333Z,102390.47
2023-06-04T23:15:29.779Z,102396.72
2023-06-04T23:17:56.248Z,102400.22
2023-06-04T23:20:22.702Z,102405.69
2023-06-04T23:22:49.192Z,102402.38
2023-06-04T23:25:16.473Z,102405.56
2023-06-04T23:27:42.891Z,102409.38
2023-06-04T23:30:09.952Z,102407.72
2023-06-04T23:32:36.562Z,102404.41
2023-06-04T23:35:03.073Z,102411.13
2023-06-04T23:37:29.562Z,102400.50
2023-06-04T23:39:55.985Z,102406.44
2023-06-04T23:42:22.402Z,102400.06
2023-06-04T23:44:48.838Z,102407.16
2023-06-04T23:47:15.398Z,102400.06
2023-06-04T23:49:41.880Z,102398.56
2023-06-04T23:52:08.343Z,102401.38
2023-06-04T23:54:34.778Z,102408.97
2023-06-04T23:57:01.308Z,102400.47
2023-06-04T23:59:27.759Z,102398.00
